Time;durP1;ratioP1;P1;durP2;ratioP2;P2;SDS_P1;SDS_P2;PMS_P1;PMS_P2;Temp;Humidity;BMP_temperature;BMP_pressure;BME280_temperature;BME280_humidity;BME280_pressure;Samples;Min_cycle;Max_cycle;Signal;HPM_P1;HPM_P2
2023/10/09 00:01:26;;;;;;;0.60;0.60;;;;;;;;;;5015551;28;20200;-91
2023/10/09 00:03:55;;;;;;;0.53;0.53;;;;;;;;;;5015890;28;20216;-92
2023/10/09 00:06:37;;;;;;;0.60;0.60;;;;;;;;;;4998686;28;20172;-92
2023/10/09 00:09:11;;;;;;;0.50;0.50;;;;;;;;;;5015390;28;20180;-91
2023/10/09 00:11:41;;;;;;;0.50;0.50;;;;;;;;;;5014012;28;20203;-92
2023/10/09 00:14:07;;;;;;;0.50;0.50;;;;;;;;;;4998065;28;20226;-91
2023/10/09 00:16:34;;;;;;;0.50;0.50;;;;;;;;;;5015926;28;20203;-91
2023/10/09 00:19:13;;;;;;;0.43;0.43;;;;;;;;;;5016292;28;20177;-91
2023/10/09 00:21:43;;;;;;;0.50;0.50;;;;;;;;;;4997193;28;20331;-92
2023/10/09 00:27:21;;;;;;;0.47;0.47;;;;;;;;;;5010599;28;20177;-92
2023/10/09 00:29:48;;;;;;;0.50;0.50;;;;;;;;;;5015273;28;20192;-93
2023/10/09 00:32:27;;;;;;;0.50;0.50;;;;;;;;;;5015953;28;20283;-93
2023/10/09 00:34:58;;;;;;;0.53;0.53;;;;;;;;;;5014757;28;20861;-93
2023/10/09 00:37:25;;;;;;;0.60;0.60;;;;;;;;;;5014919;28;20334;-92
2023/10/09 00:39:58;;;;;;;0.50;0.50;;;;;;;;;;4997995;28;20177;-93
2023/10/09 00:42:32;;;;;;;0.50;0.50;;;;;;;;;;5016204;28;20192;-93
2023/10/09 00:45:04;;;;;;;0.50;0.50;;;;;;;;;;5016466;28;20263;-93
2023/10/09 00:47:34;;;;;;;0.67;0.67;;;;;;;;;;5017383;28;20546;-93
2023/10/09 00:50:11;;;;;;;0.50;0.50;;;;;;;;;;5019385;28;20173;-92
2023/10/09 00:52:44;;;;;;;0.60;0.60;;;;;;;;;;5016228;28;20196;-93
2023/10/09 00:55:19;;;;;;;0.50;0.50;;;;;;;;;;5002494;28;20330;-92
2023/10/09 00:57:56;;;;;;;0.70;0.70;;;;;;;;;;5000668;28;20164;-93
2023/10/09 01:03:11;;;;;;;0.70;0.70;;;;;;;;;;5020314;28;20195;-93
2023/10/09 01:05:39;;;;;;;0.60;0.60;;;;;;;;;;5020584;28;20581;-93
2023/10/09 01:08:25;;;;;;;0.70;0.70;;;;;;;;;;5021622;28;20600;-93
2023/10/09 01:10:56;;;;;;;0.60;0.60;;;;;;;;;;5022079;28;20177;-94
2023/10/09 01:13:27;;;;;;;0.67;0.67;;;;;;;;;;5020858;28;20180;-93
2023/10/09 01:15:53;;;;;;;0.50;0.50;;;;;;;;;;5022218;28;20236;-94
2023/10/09 01:18:20;;;;;;;0.50;0.50;;;;;;;;;;5022049;28;20189;-93
2023/10/09 01:20:45;;;;;;;0.60;0.60;;;;;;;;;;5024539;28;20214;-93
2023/10/09 01:23:12;;;;;;;0.50;0.50;;;;;;;;;;5022749;28;20200;-94
2023/10/09 01:25:49;;;;;;;0.40;0.40;;;;;;;;;;5027713;28;20173;-93
2023/10/09 01:28:15;;;;;;;0.60;0.60;;;;;;;;;;5031629;28;20176;-92
2023/10/09 01:30:42;;;;;;;0.60;0.60;;;;;;;;;;5028953;28;20203;-92
2023/10/09 01:33:22;;;;;;;0.50;0.50;;;;;;;;;;5014864;28;20192;-93
2023/10/09 01:35:50;;;;;;;0.60;0.60;;;;;;;;;;5037226;28;20239;-94
2023/10/09 01:38:16;;;;;;;0.70;0.70;;;;;;;;;;5037870;28;20164;-93
2023/10/09 01:40:44;;;;;;;0.70;0.70;;;;;;;;;;5037861;28;20228;-94
2023/10/09 01:43:10;;;;;;;0.70;0.70;;;;;;;;;;5037604;28;20257;-93
2023/10/09 01:45:46;;;;;;;0.60;0.60;;;;;;;;;;5016611;28;20218;-93
2023/10/09 01:48:15;;;;;;;0.60;0.60;;;;;;;;;;5031169;28;20175;-93
2023/10/09 01:50:42;;;;;;;0.60;0.60;;;;;;;;;;5032441;28;20180;-94
2023/10/09 01:53:08;;;;;;;0.60;0.60;;;;;;;;;;5030952;28;20268;-93
2023/10/09 01:58:05;;;;;;;0.60;0.60;;;;;;;;;;5026310;28;20196;-93
2023/10/09 02:00:35;;;;;;;0.50;0.50;;;;;;;;;;5026037;28;20176;-93
2023/10/09 02:03:05;;;;;;;0.60;0.60;;;;;;;;;;5026947;28;20218;-95
2023/10/09 02:05:35;;;;;;;0.50;0.50;;;;;;;;;;5030245;28;20205;-93
2023/10/09 02:08:04;;;;;;;0.60;0.60;;;;;;;;;;5029431;28;20753;-93
2023/10/09 02:13:12;;;;;;;0.60;0.60;;;;;;;;;;5034290;28;20196;-93
2023/10/09 02:21:15;;;;;;;0.60;0.60;;;;;;;;;;5032916;28;20276;-93
2023/10/09 02:26:17;;;;;;;0.70;0.70;;;;;;;;;;5026948;28;20180;-93
2023/10/09 02:28:43;;;;;;;0.60;0.60;;;;;;;;;;5025092;28;20180;-94
2023/10/09 02:31:13;;;;;;;0.60;0.60;;;;;;;;;;5024547;28;20212;-93
2023/10/09 02:33:39;;;;;;;0.70;0.70;;;;;;;;;;5026823;28;20661;-94
2023/10/09 02:36:06;;;;;;;0.60;0.60;;;;;;;;;;5025646;28;20165;-93
2023/10/09 02:38:37;;;;;;;0.70;0.70;;;;;;;;;;5026890;28;20172;-93
2023/10/09 02:43:40;;;;;;;0.67;0.67;;;;;;;;;;5026494;28;20183;-93
2023/10/09 02:46:20;;;;;;;0.73;0.73;;;;;;;;;;5029131;28;20303;-91
2023/10/09 02:48:52;;;;;;;0.60;0.60;;;;;;;;;;5035197;28;20184;-93
2023/10/09 02:51:32;;;;;;;0.60;0.60;;;;;;;;;;5035587;28;20207;-93
2023/10/09 02:53:59;;;;;;;0.60;0.60;;;;;;;;;;5036544;28;20165;-95
2023/10/09 02:56:43;;;;;;;0.53;0.53;;;;;;;;;;5037414;28;20173;-94
2023/10/09 02:59:09;;;;;;;0.60;0.60;;;;;;;;;;5037403;28;20176;-93
2023/10/09 03:01:37;;;;;;;0.60;0.60;;;;;;;;;;5036350;28;20200;-93
2023/10/09 03:04:03;;;;;;;0.60;0.60;;;;;;;;;;5035954;28;20234;-94
2023/10/09 03:06:32;;;;;;;0.60;0.60;;;;;;;;;;5035338;28;20176;-95
2023/10/09 03:08:58;;;;;;;0.60;0.60;;;;;;;;;;5032418;28;20168;-93
2023/10/09 03:11:26;;;;;;;0.50;0.50;;;;;;;;;;5032243;28;20208;-93
2023/10/09 03:13:52;;;;;;;0.60;0.60;;;;;;;;;;5033568;28;20173;-93
2023/10/09 03:16:19;;;;;;;0.60;0.60;;;;;;;;;;5030965;28;20188;-94
2023/10/09 03:18:50;;;;;;;0.50;0.50;;;;;;;;;;5031599;28;20179;-91
2023/10/09 03:21:16;;;;;;;0.50;0.50;;;;;;;;;;5032334;28;20192;-93
2023/10/09 03:23:43;;;;;;;0.60;0.60;;;;;;;;;;5015914;28;20208;-93
2023/10/09 03:26:10;;;;;;;0.60;0.60;;;;;;;;;;5006504;28;20173;-93
2023/10/09 03:28:36;;;;;;;0.60;0.60;;;;;;;;;;5023961;28;20202;-93
2023/10/09 03:31:02;;;;;;;0.60;0.60;;;;;;;;;;5024933;28;20220;-93
2023/10/09 03:33:33;;;;;;;0.60;0.60;;;;;;;;;;5022330;28;20259;-93
2023/10/09 03:36:01;;;;;;;0.60;0.60;;;;;;;;;;5035023;28;20189;-94
2023/10/09 03:38:34;;;;;;;0.60;0.60;;;;;;;;;;5029840;28;20272;-93
2023/10/09 03:41:05;;;;;;;0.60;0.60;;;;;;;;;;5021103;28;20164;-94
2023/10/09 03:43:34;;;;;;;0.50;0.50;;;;;;;;;;5039397;28;20165;-93
2023/10/09 03:46:03;;;;;;;0.60;0.60;;;;;;;;;;5023007;28;20169;-92
2023/10/09 03:48:32;;;;;;;0.50;0.50;;;;;;;;;;5039978;28;20175;-92
2023/10/09 03:51:20;;;;;;;0.70;0.70;;;;;;;;;;5034254;28;20199;-90
2023/10/09 03:53:47;;;;;;;0.50;0.50;;;;;;;;;;4998070;28;20175;-89
2023/10/09 03:56:13;;;;;;;0.50;0.50;;;;;;;;;;4998255;28;20196;-92
2023/10/09 03:58:49;;;;;;;0.60;0.60;;;;;;;;;;5014250;28;20259;-91
2023/10/09 04:01:25;;;;;;;0.50;0.50;;;;;;;;;;4996391;28;20196;-91
2023/10/09 04:03:55;;;;;;;0.60;0.60;;;;;;;;;;5014325;28;20565;-91
2023/10/09 04:06:28;;;;;;;0.53;0.53;;;;;;;;;;5015151;28;20168;-88
2023/10/09 04:08:54;;;;;;;0.50;0.50;;;;;;;;;;5014921;28;20177;-89
2023/10/09 04:11:23;;;;;;;0.57;0.57;;;;;;;;;;4998232;28;20185;-92
2023/10/09 04:13:53;;;;;;;0.60;0.60;;;;;;;;;;5014771;28;20259;-88
2023/10/09 04:18:59;;;;;;;0.53;0.53;;;;;;;;;;5014299;28;20196;-90
2023/10/09 04:21:34;;;;;;;0.60;0.60;;;;;;;;;;5013947;28;20210;-91
2023/10/09 04:26:39;;;;;;;0.60;0.60;;;;;;;;;;5000825;28;20676;-91
2023/10/09 04:29:06;;;;;;;0.60;0.60;;;;;;;;;;5002561;28;20181;-91
2023/10/09 04:31:34;;;;;;;0.50;0.50;;;;;;;;;;4993985;28;20197;-91
2023/10/09 04:36:56;;;;;;;0.50;0.50;;;;;;;;;;5000110;28;20264;-91
2023/10/09 04:44:51;;;;;;;0.50;0.50;;;;;;;;;;4998968;28;20588;-91
2023/10/09 04:49:52;;;;;;;0.60;0.60;;;;;;;;;;5007690;28;20177;-91
2023/10/09 04:57:45;;;;;;;0.50;0.50;;;;;;;;;;5002828;28;20560;-91
2023/10/09 05:02:58;;;;;;;0.50;0.50;;;;;;;;;;4993608;28;20288;-91
2023/10/09 05:16:18;;;;;;;0.60;0.60;;;;;;;;;;4993699;28;20181;-92
2023/10/09 05:18:45;;;;;;;0.50;0.50;;;;;;;;;;4999911;28;20192;-94
2023/10/09 05:23:44;;;;;;;0.60;0.60;;;;;;;;;;4995471;28;20738;-92
2023/10/09 05:28:58;;;;;;;0.60;0.60;;;;;;;;;;4994348;28;20211;-92
2023/10/09 05:34:12;;;;;;;0.60;0.60;;;;;;;;;;4993902;28;20616;-92
2023/10/09 05:36:38;;;;;;;0.60;0.60;;;;;;;;;;4978915;28;20244;-93
2023/10/09 05:39:40;;;;;;;0.50;0.50;;;;;;;;;;4996162;28;20184;-91
2023/10/09 05:42:17;;;;;;;0.60;0.60;;;;;;;;;;4988434;28;20192;-92
2023/10/09 05:45:44;;;;;;;0.50;0.50;;;;;;;;;;5013478;28;20205;-92
2023/10/09 06:04:18;;;;;;;0.60;0.60;;;;;;;;;;5054039;28;20207;-91
2023/10/09 06:06:45;;;;;;;0.53;0.53;;;;;;;;;;5038149;28;20175;-93
2023/10/09 06:11:49;;;;;;;0.70;0.70;;;;;;;;;;5017860;28;20214;-91
2023/10/09 06:19:43;;;;;;;0.50;0.50;;;;;;;;;;5034576;28;20229;-94
2023/10/09 06:22:56;;;;;;;0.67;0.67;;;;;;;;;;5033704;28;20215;-92
2023/10/09 06:25:11;;;;;;;0.53;0.53;;;;;;;;;;5033090;28;20281;-92
2023/10/09 06:32:49;;;;;;;0.50;0.50;;;;;;;;;;5035147;28;20203;-93
2023/10/09 06:35:16;;;;;;;0.50;0.50;;;;;;;;;;5017964;28;20204;-92
2023/10/09 06:48:44;;;;;;;0.60;0.60;;;;;;;;;;5037008;28;20277;-92
2023/10/09 06:56:24;;;;;;;0.50;0.50;;;;;;;;;;5035498;28;20191;-92
2023/10/09 06:58:54;;;;;;;0.50;0.50;;;;;;;;;;5037760;28;20662;-91
2023/10/09 07:04:18;;;;;;;0.40;0.40;;;;;;;;;;5032665;28;20540;-92
2023/10/09 07:06:51;;;;;;;0.50;0.50;;;;;;;;;;5035419;28;20175;-92
2023/10/09 07:09:19;;;;;;;0.50;0.50;;;;;;;;;;5035276;28;20172;-91
2023/10/09 07:24:58;;;;;;;0.40;0.40;;;;;;;;;;5034908;28;20293;-91
2023/10/09 07:27:43;;;;;;;0.50;0.50;;;;;;;;;;5034546;28;20245;-92
2023/10/09 07:33:03;;;;;;;0.50;0.50;;;;;;;;;;5035109;28;20250;-92
2023/10/09 07:38:23;;;;;;;0.50;0.50;;;;;;;;;;5034534;28;20255;-92
2023/10/09 07:40:56;;;;;;;0.50;0.50;;;;;;;;;;5034134;28;20756;-92
2023/10/09 07:43:45;;;;;;;0.50;0.50;;;;;;;;;;5036097;28;20171;-91
2023/10/09 07:46:32;;;;;;;0.50;0.50;;;;;;;;;;5036542;28;20559;-92
2023/10/09 07:49:00;;;;;;;0.50;0.50;;;;;;;;;;5035772;28;20191;-91
2023/10/09 07:51:32;;;;;;;0.40;0.40;;;;;;;;;;5016104;28;20576;-92
2023/10/09 07:54:31;;;;;;;0.60;0.60;;;;;;;;;;5034943;28;20164;-92
2023/10/09 07:56:53;;;;;;;0.40;0.40;;;;;;;;;;5032915;28;20727;-92
2023/10/09 07:59:19;;;;;;;0.60;0.60;;;;;;;;;;5034463;28;20737;-92
2023/10/09 08:01:52;;;;;;;0.60;0.60;;;;;;;;;;5016251;28;20291;-92
2023/10/09 08:04:37;;;;;;;0.50;0.50;;;;;;;;;;5016501;28;20211;-92
2023/10/09 08:07:08;;;;;;;0.50;0.50;;;;;;;;;;5035643;28;20214;-92
2023/10/09 08:09:46;;;;;;;0.37;0.37;;;;;;;;;;5034215;28;20291;-92
2023/10/09 08:12:57;;;;;;;0.33;0.33;;;;;;;;;;5033698;28;20282;-91
2023/10/09 08:15:20;;;;;;;0.40;0.40;;;;;;;;;;5033455;28;20238;-93
2023/10/09 08:23:46;;;;;;;0.40;0.40;;;;;;;;;;5018713;28;20168;-89
2023/10/09 08:26:12;;;;;;;0.60;0.60;;;;;;;;;;5047672;28;20276;-92
2023/10/09 08:28:45;;;;;;;0.50;0.50;;;;;;;;;;5017262;28;20207;-92
2023/10/09 08:31:56;;;;;;;0.40;0.40;;;;;;;;;;5034546;28;20195;-92
2023/10/09 08:34:23;;;;;;;0.50;0.50;;;;;;;;;;5030763;28;20206;-92
2023/10/09 08:36:52;;;;;;;0.40;0.40;;;;;;;;;;5034076;28;20649;-91
2023/10/09 08:39:25;;;;;;;0.30;0.30;;;;;;;;;;5035423;28;20175;-92
2023/10/09 08:41:57;;;;;;;0.60;0.60;;;;;;;;;;5033821;28;20195;-92
2023/10/09 08:44:26;;;;;;;0.30;0.30;;;;;;;;;;5033611;28;20298;-92
2023/10/09 08:46:53;;;;;;;0.33;0.33;;;;;;;;;;5033778;28;20183;-91
2023/10/09 08:49:21;;;;;;;0.40;0.40;;;;;;;;;;5034260;28;20202;-92
2023/10/09 08:51:48;;;;;;;0.40;0.40;;;;;;;;;;5034595;28;20207;-91
2023/10/09 08:54:14;;;;;;;0.40;0.40;;;;;;;;;;5034312;28;20233;-91
2023/10/09 08:56:49;;;;;;;0.50;0.50;;;;;;;;;;5016136;28;20182;-93
2023/10/09 08:59:18;;;;;;;0.40;0.40;;;;;;;;;;5046743;28;20194;-88
2023/10/09 09:01:44;;;;;;;0.47;0.47;;;;;;;;;;5058077;28;20251;-89
2023/10/09 09:04:10;;;;;;;0.47;0.47;;;;;;;;;;5058487;28;20199;-92
2023/10/09 09:06:40;;;;;;;0.40;0.40;;;;;;;;;;5058426;28;20363;-91
2023/10/09 09:09:16;;;;;;;0.40;0.40;;;;;;;;;;5040351;28;20176;-91
2023/10/09 09:11:49;;;;;;;0.50;0.50;;;;;;;;;;5057195;28;20184;-91
2023/10/09 09:14:19;;;;;;;0.30;0.30;;;;;;;;;;5033268;28;20190;-92
2023/10/09 09:16:48;;;;;;;0.40;0.40;;;;;;;;;;5033767;28;20195;-91
2023/10/09 09:19:17;;;;;;;0.40;0.40;;;;;;;;;;5033918;28;20179;-92
2023/10/09 09:21:48;;;;;;;0.50;0.50;;;;;;;;;;5033343;28;20203;-93
2023/10/09 09:24:16;;;;;;;0.43;0.43;;;;;;;;;;5026965;28;20195;-92
2023/10/09 09:26:45;;;;;;;0.40;0.40;;;;;;;;;;5046975;28;20275;-92
2023/10/09 09:29:18;;;;;;;0.30;0.30;;;;;;;;;;5015054;28;20207;-92
2023/10/09 09:32:16;;;;;;;0.30;0.30;;;;;;;;;;5032162;28;20203;-92
2023/10/09 09:34:49;;;;;;;0.30;0.30;;;;;;;;;;5032513;28;20661;-92
2023/10/09 09:37:28;;;;;;;0.30;0.30;;;;;;;;;;5015956;28;20180;-92
2023/10/09 09:40:14;;;;;;;0.37;0.37;;;;;;;;;;5032929;28;20172;-91
2023/10/09 09:42:45;;;;;;;0.40;0.40;;;;;;;;;;5025601;28;20192;-93
2023/10/09 09:45:13;;;;;;;0.40;0.40;;;;;;;;;;5043240;28;20230;-91
2023/10/09 09:47:39;;;;;;;0.30;0.30;;;;;;;;;;5041182;28;20180;-91
2023/10/09 09:50:22;;;;;;;0.30;0.30;;;;;;;;;;5031881;28;20184;-92
2023/10/09 09:52:53;;;;;;;0.30;0.30;;;;;;;;;;5014249;28;20195;-92
2023/10/09 09:55:22;;;;;;;0.30;0.30;;;;;;;;;;5032658;28;20230;-91
2023/10/09 09:57:51;;;;;;;0.37;0.37;;;;;;;;;;5032480;28;20176;-92
2023/10/09 10:00:42;;;;;;;0.30;0.30;;;;;;;;;;5014004;28;20669;-91
2023/10/09 10:03:13;;;;;;;0.30;0.30;;;;;;;;;;5032156;28;20172;-92
2023/10/09 10:05:40;;;;;;;0.30;0.30;;;;;;;;;;5014115;28;20211;-91
2023/10/09 10:08:13;;;;;;;0.30;0.30;;;;;;;;;;5031947;28;20200;-91
2023/10/09 10:10:52;;;;;;;0.30;0.30;;;;;;;;;;5031859;28;20250;-91
2023/10/09 10:13:27;;;;;;;0.33;0.33;;;;;;;;;;5006794;28;20199;-92
2023/10/09 10:15:56;;;;;;;0.30;0.30;;;;;;;;;;5014514;28;20696;-91
2023/10/09 10:18:23;;;;;;;0.40;0.40;;;;;;;;;;5032454;28;20214;-92
2023/10/09 10:21:16;;;;;;;0.30;0.30;;;;;;;;;;5013767;28;20180;-91
2023/10/09 10:23:42;;;;;;;0.30;0.30;;;;;;;;;;5031088;28;20176;-89
2023/10/09 10:26:26;;;;;;;0.40;0.40;;;;;;;;;;5034215;28;20638;-90
2023/10/09 10:29:22;;;;;;;0.30;0.30;;;;;;;;;;5035634;28;20203;-90
2023/10/09 10:32:01;;;;;;;0.33;0.33;;;;;;;;;;5017144;28;20246;-90
2023/10/09 10:34:36;;;;;;;0.30;0.30;;;;;;;;;;5035463;28;20264;-89
2023/10/09 10:37:06;;;;;;;0.40;0.40;;;;;;;;;;5037129;28;20183;-87
2023/10/09 10:39:43;;;;;;;0.30;0.30;;;;;;;;;;5035510;28;20175;-88
2023/10/09 10:42:33;;;;;;;0.30;0.30;;;;;;;;;;5034506;28;20195;-90
2023/10/09 10:44:56;;;;;;;0.40;0.40;;;;;;;;;;5035025;28;20208;-91
2023/10/09 10:47:32;;;;;;;0.30;0.30;;;;;;;;;;5035284;28;20167;-91
2023/10/09 10:49:58;;;;;;;0.50;0.50;;;;;;;;;;5036411;28;20183;-89
2023/10/09 10:52:44;;;;;;;0.40;0.40;;;;;;;;;;5036449;28;20191;-92
2023/10/09 10:55:48;;;;;;;0.30;0.30;;;;;;;;;;5035957;28;20180;-90
2023/10/09 10:58:13;;;;;;;0.40;0.40;;;;;;;;;;5035383;28;20183;-91
2023/10/09 11:03:29;;;;;;;0.40;0.40;;;;;;;;;;5035030;28;20270;-89
2023/10/09 11:05:55;;;;;;;0.30;0.30;;;;;;;;;;5034784;28;20226;-91
2023/10/09 11:08:30;;;;;;;0.40;0.40;;;;;;;;;;5034770;28;20637;-89
2023/10/09 11:11:15;;;;;;;0.30;0.30;;;;;;;;;;5034133;28;20207;-89
2023/10/09 11:13:53;;;;;;;0.30;0.30;;;;;;;;;;5034351;28;20174;-88
2023/10/09 11:16:41;;;;;;;0.30;0.30;;;;;;;;;;5033977;28;20214;-88
2023/10/09 11:21:58;;;;;;;0.30;0.30;;;;;;;;;;5040935;28;20194;-89
2023/10/09 11:24:26;;;;;;;0.40;0.40;;;;;;;;;;5017201;28;20215;-91
2023/10/09 11:26:55;;;;;;;0.30;0.30;;;;;;;;;;5036805;28;20183;-88
2023/10/09 11:32:11;;;;;;;0.40;0.40;;;;;;;;;;5033735;28;20329;-89
2023/10/09 11:34:37;;;;;;;0.40;0.40;;;;;;;;;;5034005;28;20233;-91
2023/10/09 11:37:05;;;;;;;0.30;0.30;;;;;;;;;;5033564;28;20176;-89
2023/10/09 11:39:34;;;;;;;0.40;0.40;;;;;;;;;;5016681;28;20172;-91
2023/10/09 11:42:07;;;;;;;0.30;0.30;;;;;;;;;;5033591;28;20218;-90
2023/10/09 11:44:40;;;;;;;0.40;0.40;;;;;;;;;;5034365;28;20208;-88
2023/10/09 11:54:58;;;;;;;0.40;0.40;;;;;;;;;;5049578;28;20214;-85
2023/10/09 11:57:30;;;;;;;0.40;0.40;;;;;;;;;;5032789;28;20231;-88
2023/10/09 11:59:56;;;;;;;0.30;0.30;;;;;;;;;;4999251;28;20203;-89
2023/10/09 12:02:22;;;;;;;0.43;0.43;;;;;;;;;;5017406;28;20283;-89
2023/10/09 12:04:48;;;;;;;0.30;0.30;;;;;;;;;;5016346;28;20247;-90
2023/10/09 12:07:14;;;;;;;0.30;0.30;;;;;;;;;;5015869;28;20725;-90
2023/10/09 12:09:41;;;;;;;0.30;0.30;;;;;;;;;;5013866;28;20230;-89
2023/10/09 12:12:10;;;;;;;0.30;0.30;;;;;;;;;;5013493;28;20227;-89
2023/10/09 12:14:39;;;;;;;0.30;0.30;;;;;;;;;;5013815;28;20551;-91
2023/10/09 12:17:06;;;;;;;0.30;0.30;;;;;;;;;;4996208;28;20178;-90
2023/10/09 12:19:35;;;;;;;0.30;0.30;;;;;;;;;;5019236;28;20657;-89
2023/10/09 12:22:03;;;;;;;0.30;0.30;;;;;;;;;;5000512;28;20721;-89
2023/10/09 12:24:29;;;;;;;0.40;0.40;;;;;;;;;;5014683;28;20304;-90
2023/10/09 12:26:56;;;;;;;0.33;0.33;;;;;;;;;;4996672;28;20176;-89
2023/10/09 12:29:23;;;;;;;0.30;0.30;;;;;;;;;;5013473;28;20180;-88
2023/10/09 12:31:57;;;;;;;0.50;0.50;;;;;;;;;;5013393;28;20700;-90
2023/10/09 12:34:26;;;;;;;0.30;0.30;;;;;;;;;;5013438;28;20263;-87
2023/10/09 12:36:52;;;;;;;0.40;0.40;;;;;;;;;;5013772;28;20183;-91
2023/10/09 12:39:18;;;;;;;0.33;0.33;;;;;;;;;;5013512;28;20235;-88
2023/10/09 12:41:44;;;;;;;0.40;0.40;;;;;;;;;;4995720;28;20564;-87
2023/10/09 12:44:14;;;;;;;0.43;0.43;;;;;;;;;;5028509;28;20215;-87
2023/10/09 12:46:41;;;;;;;0.30;0.30;;;;;;;;;;5017849;28;20186;-86
2023/10/09 12:49:07;;;;;;;0.40;0.40;;;;;;;;;;5035906;28;20195;-85
2023/10/09 12:51:33;;;;;;;0.40;0.40;;;;;;;;;;5008863;28;20192;-85
2023/10/09 12:54:01;;;;;;;0.40;0.40;;;;;;;;;;5034339;28;20182;-87
2023/10/09 12:56:32;;;;;;;0.40;0.40;;;;;;;;;;5033108;28;20692;-88
2023/10/09 12:59:01;;;;;;;0.40;0.40;;;;;;;;;;5016791;28;20282;-86
2023/10/09 13:01:31;;;;;;;0.50;0.50;;;;;;;;;;5033563;28;20203;-88
2023/10/09 13:03:59;;;;;;;0.40;0.40;;;;;;;;;;5014544;28;20211;-87
2023/10/09 13:06:26;;;;;;;0.40;0.40;;;;;;;;;;5033200;28;20641;-86
2023/10/09 13:08:52;;;;;;;0.50;0.50;;;;;;;;;;5021513;28;20248;-88
2023/10/09 13:11:21;;;;;;;0.40;0.40;;;;;;;;;;5022526;28;20200;-86
2023/10/09 13:13:47;;;;;;;0.43;0.43;;;;;;;;;;5036490;28;20528;-86
2023/10/09 13:16:23;;;;;;;0.30;0.30;;;;;;;;;;5035548;28;20270;-85
2023/10/09 13:19:09;;;;;;;0.40;0.40;;;;;;;;;;5030045;28;20183;-86
2023/10/09 13:21:37;;;;;;;0.40;0.40;;;;;;;;;;5028132;28;20195;-86
2023/10/09 13:24:04;;;;;;;0.50;0.50;;;;;;;;;;5027078;28;20212;-86
2023/10/09 13:26:30;;;;;;;0.40;0.40;;;;;;;;;;5029408;28;20183;-85
2023/10/09 13:28:57;;;;;;;0.50;0.50;;;;;;;;;;5015637;28;20518;-86
2023/10/09 13:31:27;;;;;;;0.60;0.60;;;;;;;;;;5028151;28;20263;-85
2023/10/09 13:33:55;;;;;;;0.43;0.43;;;;;;;;;;5035704;28;20184;-86
2023/10/09 13:36:49;;;;;;;0.47;0.47;;;;;;;;;;5025300;28;20191;-85
2023/10/09 13:39:23;;;;;;;0.50;0.50;;;;;;;;;;5036886;28;20187;-84
2023/10/09 13:41:59;;;;;;;0.57;0.57;;;;;;;;;;5023365;28;20215;-85
2023/10/09 13:44:29;;;;;;;0.60;0.60;;;;;;;;;;5033393;28;20210;-85
2023/10/09 13:46:56;;;;;;;0.50;0.50;;;;;;;;;;5029412;28;20685;-87
2023/10/09 13:49:29;;;;;;;0.40;0.40;;;;;;;;;;5026847;28;20655;-86
2023/10/09 13:51:56;;;;;;;0.50;0.50;;;;;;;;;;5046220;28;20199;-84
2023/10/09 13:56:58;;;;;;;0.50;0.50;;;;;;;;;;5054577;28;20187;-85
2023/10/09 13:59:27;;;;;;;0.53;0.53;;;;;;;;;;5035258;28;20184;-84
2023/10/09 14:01:56;;;;;;;0.47;0.47;;;;;;;;;;5037195;28;20230;-86
2023/10/09 14:04:23;;;;;;;0.60;0.60;;;;;;;;;;5036232;28;20238;-85
2023/10/09 14:06:56;;;;;;;0.70;0.70;;;;;;;;;;5036009;28;20218;-84
2023/10/09 14:09:31;;;;;;;0.60;0.60;;;;;;;;;;5036076;28;20194;-85
2023/10/09 14:12:11;;;;;;;0.50;0.50;;;;;;;;;;5017574;28;20211;-85
2023/10/09 14:14:53;;;;;;;0.53;0.53;;;;;;;;;;5036109;28;20221;-84
2023/10/09 14:17:23;;;;;;;0.47;0.47;;;;;;;;;;5037159;28;20187;-84
2023/10/09 14:19:51;;;;;;;0.50;0.50;;;;;;;;;;5018771;28;20590;-84
2023/10/09 14:22:17;;;;;;;0.60;0.60;;;;;;;;;;5036548;28;20207;-84
2023/10/09 14:24:47;;;;;;;0.40;0.40;;;;;;;;;;5037840;28;20207;-85
2023/10/09 14:27:18;;;;;;;0.43;0.43;;;;;;;;;;5037236;28;20183;-83
2023/10/09 14:29:45;;;;;;;0.50;0.50;;;;;;;;;;5016831;28;20193;-83
2023/10/09 14:32:14;;;;;;;0.40;0.40;;;;;;;;;;5028230;28;20264;-82
2023/10/09 14:34:49;;;;;;;0.30;0.30;;;;;;;;;;5024489;28;20267;-84
2023/10/09 14:37:16;;;;;;;0.50;0.50;;;;;;;;;;5018627;28;20176;-84
2023/10/09 14:39:42;;;;;;;0.40;0.40;;;;;;;;;;5019644;28;20187;-83
2023/10/09 14:42:11;;;;;;;0.50;0.50;;;;;;;;;;5026763;28;20202;-82
2023/10/09 14:44:38;;;;;;;0.50;0.50;;;;;;;;;;5021986;28;20215;-82
2023/10/09 14:47:07;;;;;;;0.40;0.40;;;;;;;;;;5038952;28;20629;-85
2023/10/09 14:49:43;;;;;;;0.40;0.40;;;;;;;;;;5017916;28;20230;-88
2023/10/09 14:52:09;;;;;;;0.40;0.40;;;;;;;;;;5017009;28;20290;-84
2023/10/09 14:54:36;;;;;;;0.40;0.40;;;;;;;;;;5035288;28;20180;-86
2023/10/09 14:57:05;;;;;;;0.50;0.50;;;;;;;;;;5035715;28;20671;-85
2023/10/09 14:59:32;;;;;;;0.30;0.30;;;;;;;;;;5038539;28;20225;-83
2023/10/09 15:01:59;;;;;;;0.50;0.50;;;;;;;;;;5039917;28;20233;-85
2023/10/09 15:04:28;;;;;;;0.40;0.40;;;;;;;;;;5042159;28;20200;-84
2023/10/09 15:06:54;;;;;;;0.30;0.30;;;;;;;;;;5027150;28;20203;-84
2023/10/09 15:09:23;;;;;;;0.40;0.40;;;;;;;;;;5053096;28;20172;-81
2023/10/09 15:11:52;;;;;;;0.40;0.40;;;;;;;;;;5053671;28;20191;-83
2023/10/09 15:14:21;;;;;;;0.47;0.47;;;;;;;;;;5053614;28;20211;-86
2023/10/09 15:16:50;;;;;;;0.40;0.40;;;;;;;;;;5048140;28;20191;-85
2023/10/09 15:19:16;;;;;;;0.30;0.30;;;;;;;;;;5050356;28;20176;-84
2023/10/09 15:21:47;;;;;;;0.50;0.50;;;;;;;;;;5049718;28;20743;-83
2023/10/09 15:24:19;;;;;;;0.50;0.50;;;;;;;;;;5043426;28;20238;-85
2023/10/09 15:26:57;;;;;;;0.50;0.50;;;;;;;;;;5038810;28;20203;-86
2023/10/09 15:29:27;;;;;;;0.37;0.37;;;;;;;;;;5023128;28;20195;-85
2023/10/09 15:31:53;;;;;;;0.40;0.40;;;;;;;;;;5009356;28;20200;-86
2023/10/09 15:34:20;;;;;;;0.40;0.40;;;;;;;;;;5003143;28;20172;-82
2023/10/09 15:36:47;;;;;;;0.40;0.40;;;;;;;;;;5022433;28;20189;-82
2023/10/09 15:39:13;;;;;;;0.30;0.30;;;;;;;;;;5021431;28;20176;-83
2023/10/09 15:41:39;;;;;;;0.50;0.50;;;;;;;;;;5021353;28;20749;-86
2023/10/09 15:44:05;;;;;;;0.40;0.40;;;;;;;;;;5020517;28;20216;-82
2023/10/09 15:46:34;;;;;;;0.30;0.30;;;;;;;;;;5021740;28;20181;-83
2023/10/09 15:49:00;;;;;;;0.40;0.40;;;;;;;;;;5023525;28;20199;-83
2023/10/09 15:51:26;;;;;;;0.40;0.40;;;;;;;;;;5025539;28;20203;-84
2023/10/09 15:53:52;;;;;;;0.30;0.30;;;;;;;;;;5021029;28;20601;-84
2023/10/09 15:56:20;;;;;;;0.30;0.30;;;;;;;;;;5030225;28;20207;-83
2023/10/09 15:58:47;;;;;;;0.40;0.40;;;;;;;;;;5031955;28;20630;-84
2023/10/09 16:01:20;;;;;;;0.40;0.40;;;;;;;;;;5036007;28;20254;-84
2023/10/09 16:03:50;;;;;;;0.30;0.30;;;;;;;;;;5015823;28;20263;-83
2023/10/09 16:06:16;;;;;;;0.30;0.30;;;;;;;;;;5018106;28;20187;-84
2023/10/09 16:08:47;;;;;;;0.20;0.20;;;;;;;;;;5033820;28;20199;-87
2023/10/09 16:11:25;;;;;;;0.30;0.30;;;;;;;;;;5033078;28;20685;-87
2023/10/09 16:13:53;;;;;;;0.30;0.30;;;;;;;;;;5031511;28;20187;-86
2023/10/09 16:16:30;;;;;;;0.40;0.40;;;;;;;;;;5033173;28;20322;-88
2023/10/09 16:18:57;;;;;;;0.43;0.43;;;;;;;;;;5029991;28;20305;-88
2023/10/09 16:21:26;;;;;;;0.40;0.40;;;;;;;;;;5021215;28;20201;-87
2023/10/09 16:23:53;;;;;;;0.30;0.30;;;;;;;;;;5011439;28;20342;-88
2023/10/09 16:26:24;;;;;;;0.37;0.37;;;;;;;;;;5026453;28;20192;-88
2023/10/09 16:28:51;;;;;;;0.30;0.30;;;;;;;;;;5029115;28;20267;-90
2023/10/09 16:31:18;;;;;;;0.40;0.40;;;;;;;;;;5016060;28;20528;-93
2023/10/09 16:33:45;;;;;;;0.40;0.40;;;;;;;;;;5029145;28;20246;-95
2023/10/09 16:36:11;;;;;;;0.30;0.30;;;;;;;;;;4997483;28;20185;-90
2023/10/09 16:38:39;;;;;;;0.43;0.43;;;;;;;;;;5031150;28;20172;-92
2023/10/09 16:41:08;;;;;;;0.30;0.30;;;;;;;;;;5015520;28;20200;-94
2023/10/09 16:43:43;;;;;;;0.30;0.30;;;;;;;;;;5018988;28;20279;-91
2023/10/09 16:46:13;;;;;;;0.33;0.33;;;;;;;;;;5041007;28;20185;-92
2023/10/09 16:48:40;;;;;;;0.30;0.30;;;;;;;;;;5010975;28;20691;-91
2023/10/09 16:51:09;;;;;;;0.40;0.40;;;;;;;;;;5027989;28;20220;-91
2023/10/09 16:53:38;;;;;;;0.30;0.30;;;;;;;;;;5022223;28;20176;-91
2023/10/09 16:56:09;;;;;;;0.30;0.30;;;;;;;;;;5009994;28;20211;-91
2023/10/09 16:58:39;;;;;;;0.30;0.30;;;;;;;;;;5004637;28;20180;-92
2023/10/09 17:01:11;;;;;;;0.30;0.30;;;;;;;;;;5016392;28;20547;-93
2023/10/09 17:03:42;;;;;;;0.40;0.40;;;;;;;;;;5046782;28;20232;-93
2023/10/09 17:06:09;;;;;;;0.30;0.30;;;;;;;;;;5048356;28;20218;-90
2023/10/09 17:08:42;;;;;;;0.40;0.40;;;;;;;;;;5043274;28;20191;-91
2023/10/09 17:11:11;;;;;;;0.30;0.30;;;;;;;;;;5035099;28;20198;-91
2023/10/09 17:13:37;;;;;;;0.50;0.50;;;;;;;;;;5022528;28;20181;-91
2023/10/09 17:16:03;;;;;;;0.30;0.30;;;;;;;;;;5030886;28;20167;-91
2023/10/09 17:18:29;;;;;;;0.33;0.33;;;;;;;;;;5033751;28;20646;-92
2023/10/09 17:20:55;;;;;;;0.30;0.30;;;;;;;;;;5033391;28;20184;-92
2023/10/09 17:23:21;;;;;;;0.30;0.30;;;;;;;;;;5026453;28;20187;-90
2023/10/09 17:25:57;;;;;;;0.30;0.30;;;;;;;;;;5027994;28;20215;-89
2023/10/09 17:28:23;;;;;;;0.30;0.30;;;;;;;;;;5011071;28;20180;-90
2023/10/09 17:30:49;;;;;;;0.30;0.30;;;;;;;;;;5025682;28;20183;-91
2023/10/09 17:33:19;;;;;;;0.40;0.40;;;;;;;;;;5019123;28;20176;-91
2023/10/09 17:35:46;;;;;;;0.40;0.40;;;;;;;;;;5035413;28;20180;-91
2023/10/09 17:38:12;;;;;;;0.30;0.30;;;;;;;;;;5003957;28;20188;-92
2023/10/09 17:40:44;;;;;;;0.33;0.33;;;;;;;;;;5020494;28;20263;-94
2023/10/09 17:43:10;;;;;;;0.30;0.30;;;;;;;;;;5002818;28;20215;-92